createdAt,value
2022-10-31T00:03:38.680Z,10.32
2022-10-31T00:08:42.674Z,9.30
2022-10-31T00:13:49.216Z,9.30
2022-10-31T00:18:53.813Z,10.60
2022-10-31T00:23:59.751Z,10.45
2022-10-31T00:29:05.302Z,11.00
2022-10-31T00:39:13.294Z,11.57
2022-10-31T00:44:18.945Z,8.80
2022-10-31T00:49:24.026Z,11.10
2022-10-31T00:54:28.309Z,12.35
2022-10-31T00:59:36.266Z,10.57
2022-10-31T01:04:40.147Z,9.82
2022-10-31T01:09:44.052Z,12.18
2022-10-31T01:14:49.275Z,10.27
2022-10-31T01:19:55.664Z,9.02
2022-10-31T01:25:00.732Z,9.35
2022-10-31T01:30:08.663Z,10.07
2022-10-31T01:35:12.587Z,10.43
2022-10-31T01:40:16.595Z,9.55
2022-10-31T01:45:22.086Z,8.93
2022-10-31T01:50:33.167Z,8.52
2022-10-31T01:55:40.698Z,8.70
2022-10-31T02:00:50.705Z,9.43
2022-10-31T02:05:56.955Z,8.80
2022-10-31T02:11:03.009Z,7.35
2022-10-31T02:16:11.350Z,8.73
2022-10-31T02:21:21.949Z,8.88
2022-10-31T02:26:51.965Z,9.55
2022-10-31T02:32:04.529Z,8.48
2022-10-31T02:37:16.234Z,8.60
2022-10-31T02:42:31.393Z,8.73
2022-10-31T02:47:39.845Z,8.80
2022-10-31T02:52:44.169Z,7.55
2022-10-31T02:57:48.135Z,7.90
2022-10-31T03:03:06.457Z,7.97
2022-10-31T03:08:23.528Z,8.48
2022-10-31T03:13:36.547Z,8.80
2022-10-31T03:18:46.105Z,8.48
2022-10-31T03:23:52.677Z,8.73
2022-10-31T03:29:02.251Z,7.57
2022-10-31T03:34:09.823Z,8.43
2022-10-31T03:39:19.137Z,7.88
2022-10-31T03:44:26.125Z,8.43
2022-10-31T03:49:38.208Z,8.13
2022-10-31T03:54:46.619Z,7.47
2022-10-31T03:59:55.421Z,7.28
2022-10-31T04:05:03.379Z,7.15
2022-10-31T04:10:12.285Z,7.22
2022-10-31T04:15:21.631Z,8.32
2022-10-31T04:20:34.880Z,6.25
2022-10-31T04:25:38.811Z,6.85
2022-10-31T04:30:43.183Z,6.65
2022-10-31T04:35:48.978Z,6.70
2022-10-31T04:46:17.565Z,6.90
2022-10-31T04:51:22.908Z,7.68
2022-10-31T04:56:26.849Z,6.60
2022-10-31T05:01:35.626Z,6.30
2022-10-31T05:06:41.026Z,7.22
2022-10-31T05:11:46.048Z,6.15
2022-10-31T05:17:15.688Z,6.18
2022-10-31T05:22:57.723Z,7.07
2022-10-31T05:28:02.503Z,6.05
2022-10-31T05:33:06.533Z,5.45
2022-10-31T05:38:30.237Z,6.45
2022-10-31T05:43:38.837Z,6.60
2022-10-31T05:48:44.294Z,7.25
2022-10-31T05:54:10.851Z,9.02
2022-10-31T05:59:20.201Z,10.32
2022-10-31T06:04:25.062Z,9.82
2022-10-31T06:09:31.226Z,9.03
2022-10-31T06:14:35.225Z,6.72
2022-10-31T06:19:40.995Z,8.15
2022-10-31T06:24:47.885Z,10.18
2022-10-31T06:30:04.452Z,10.40
2022-10-31T06:35:10.278Z,9.80
2022-10-31T06:40:16.657Z,7.97
2022-10-31T06:45:49.843Z,7.57
2022-10-31T06:50:58.588Z,6.10
2022-10-31T06:56:06.488Z,5.80
2022-10-31T07:01:16.516Z,4.90
2022-10-31T07:06:20.615Z,5.50
2022-10-31T07:11:26.305Z,4.35
2022-10-31T07:16:32.762Z,4.68
2022-10-31T07:21:38.037Z,5.35
2022-10-31T07:26:49.123Z,5.07
2022-10-31T07:31:53.681Z,4.80
2022-10-31T07:37:03.456Z,4.78
2022-10-31T07:42:09.379Z,4.57
2022-10-31T07:47:14.718Z,6.80
2022-10-31T07:52:43.698Z,4.40
2022-10-31T07:58:10.141Z,3.92
2022-10-31T08:03:19.234Z,4.65
2022-10-31T08:08:41.831Z,4.15
2022-10-31T08:13:49.150Z,3.67
2022-10-31T08:18:54.649Z,4.47
2022-10-31T08:23:58.859Z,4.13
2022-10-31T08:29:06.441Z,4.57
2022-10-31T08:34:13.009Z,4.28
2022-10-31T08:39:35.309Z,3.47
2022-10-31T08:44:40.721Z,3.60
2022-10-31T08:49:46.002Z,3.58
2022-10-31T08:54:51.567Z,3.80
2022-10-31T09:00:17.446Z,3.92
2022-10-31T09:05:36.228Z,4.07
2022-10-31T09:10:40.992Z,4.20
2022-10-31T09:15:48.965Z,3.80
2022-10-31T09:21:02.501Z,3.58
2022-10-31T09:26:11.709Z,4.15
2022-10-31T09:31:20.685Z,4.07
2022-10-31T09:36:39.176Z,4.30
2022-10-31T09:42:29.602Z,4.45
2022-10-31T09:47:46.084Z,5.03
2022-10-31T09:53:26.026Z,4.45
2022-10-31T09:58:34.190Z,4.38
2022-10-31T10:03:47.859Z,5.50
2022-10-31T10:09:24.496Z,5.03
2022-10-31T10:15:07.899Z,4.43
2022-10-31T10:20:30.108Z,4.70
2022-10-31T10:25:40.711Z,4.93
2022-10-31T10:30:47.519Z,5.38
2022-10-31T10:35:59.156Z,4.72
2022-10-31T10:41:07.816Z,5.43
2022-10-31T10:46:37.483Z,5.38
2022-10-31T10:57:33.441Z,6.35
2022-10-31T11:02:37.386Z,5.93
2022-10-31T11:07:42.757Z,5.32
2022-10-31T11:17:53.763Z,6.82
2022-10-31T11:23:07.640Z,5.25
2022-10-31T11:28:12.102Z,5.22
2022-10-31T11:33:24.272Z,6.53
2022-10-31T11:38:36.286Z,6.25
2022-10-31T11:43:41.341Z,4.95
2022-10-31T11:48:49.977Z,5.47
2022-10-31T11:54:00.155Z,8.05
2022-10-31T11:59:16.959Z,6.25
2022-10-31T12:04:25.700Z,6.93
2022-10-31T12:09:34.799Z,6.72
2022-10-31T12:14:49.497Z,5.57
2022-10-31T12:20:05.354Z,5.53
2022-10-31T12:25:25.413Z,6.28
2022-10-31T12:30:43.957Z,6.32
2022-10-31T12:35:55.079Z,6.25
2022-10-31T12:41:27.161Z,6.38
2022-10-31T12:46:46.270Z,5.93
2022-10-31T12:52:02.928Z,5.55
2022-10-31T12:57:19.330Z,5.85
2022-10-31T13:02:29.589Z,7.43
2022-10-31T13:07:39.832Z,5.60
2022-10-31T13:12:47.922Z,6.55
2022-10-31T13:17:56.678Z,6.82
2022-10-31T13:23:18.167Z,7.60
2022-10-31T13:28:38.996Z,6.30
2022-10-31T13:33:48.890Z,6.60
2022-10-31T13:38:55.565Z,6.00
2022-10-31T13:44:08.012Z,6.55
2022-10-31T13:49:42.557Z,7.53
2022-10-31T13:54:49.085Z,6.57
2022-10-31T13:59:57.644Z,7.25
2022-10-31T14:05:04.066Z,7.85
2022-10-31T14:10:22.461Z,6.90
2022-10-31T14:15:29.991Z,7.65
2022-10-31T14:20:40.089Z,7.15
2022-10-31T14:25:44.061Z,9.30
2022-10-31T14:30:56.121Z,10.93
2022-10-31T14:36:05.573Z,9.07
2022-10-31T14:41:33.273Z,9.57
2022-10-31T14:46:50.476Z,8.43
2022-10-31T14:51:54.990Z,8.02
2022-10-31T15:01:58.433Z,9.07
2022-10-31T15:07:09.172Z,9.23
2022-10-31T15:12:25.854Z,10.73
2022-10-31T15:17:31.350Z,12.50
2022-10-31T15:27:42.740Z,19.27
2022-10-31T15:32:57.461Z,30.50
2022-10-31T15:43:08.813Z,21.70
2022-10-31T15:48:19.684Z,40.80
2022-10-31T15:53:27.352Z,23.98
2022-10-31T15:58:34.852Z,20.73
2022-10-31T16:03:40.192Z,20.05
2022-10-31T16:08:50.333Z,21.15
2022-10-31T16:13:57.243Z,22.35
2022-10-31T16:19:04.371Z,23.35
2022-10-31T16:24:18.652Z,23.88
2022-10-31T16:29:34.790Z,22.10
2022-10-31T16:34:40.131Z,19.88
2022-10-31T16:39:44.175Z,16.13
2022-10-31T16:44:49.881Z,16.40
2022-10-31T16:49:55.337Z,15.13
2022-10-31T16:54:59.492Z,16.30
2022-10-31T17:00:04.387Z,15.25
2022-10-31T17:05:13.499Z,16.63
2022-10-31T17:10:19.192Z,14.68
2022-10-31T17:15:26.298Z,13.10
2022-10-31T17:20:33.039Z,17.50
2022-10-31T17:25:37.220Z,19.88
2022-10-31T17:30:41.887Z,18.85
2022-10-31T17:35:47.230Z,21.70
2022-10-31T17:40:51.356Z,14.32
2022-10-31T17:45:55.511Z,17.17
2022-10-31T17:51:03.156Z,12.85
2022-10-31T17:56:12.136Z,12.82
2022-10-31T18:01:18.181Z,14.07
2022-10-31T18:06:23.520Z,12.75
2022-10-31T18:11:27.635Z,27.85
2022-10-31T18:16:31.739Z,23.08
2022-10-31T18:21:37.579Z,15.85
2022-10-31T18:26:41.552Z,43.13
2022-10-31T18:31:48.500Z,27.83
2022-10-31T18:36:53.881Z,28.02
2022-10-31T18:41:58.254Z,16.00
2022-10-31T18:47:02.082Z,15.38
2022-10-31T18:52:07.371Z,15.63
2022-10-31T18:57:12.031Z,16.23
2022-10-31T19:02:17.852Z,17.45
2022-10-31T19:12:27.285Z,20.77
2022-10-31T19:17:31.338Z,17.60
2022-10-31T19:22:36.540Z,19.30
2022-10-31T19:27:40.661Z,15.43
2022-10-31T19:32:44.740Z,17.63
2022-10-31T19:37:49.954Z,14.05
2022-10-31T19:42:53.957Z,21.60
2022-10-31T19:47:58.241Z,16.90
2022-10-31T19:53:06.214Z,14.32
2022-10-31T19:58:10.110Z,15.10
2022-10-31T20:03:18.306Z,16.88
2022-10-31T20:08:26.740Z,17.25
2022-10-31T20:13:31.954Z,20.05
2022-10-31T20:18:36.889Z,20.92
2022-10-31T20:23:42.744Z,20.70
2022-10-31T20:28:47.589Z,18.77
2022-10-31T20:33:51.739Z,18.50
2022-10-31T20:38:57.195Z,17.55
2022-10-31T20:44:01.182Z,19.70
2022-10-31T20:49:05.328Z,21.13
2022-10-31T20:54:14.666Z,19.58
2022-10-31T20:59:20.021Z,21.85
2022-10-31T21:04:24.097Z,20.17
2022-10-31T21:09:29.618Z,20.48
2022-10-31T21:14:34.185Z,19.05
2022-10-31T21:19:38.072Z,15.95
2022-10-31T21:24:43.768Z,16.17
2022-10-31T21:29:47.651Z,16.08
2022-10-31T21:34:51.624Z,14.70
2022-10-31T21:39:56.916Z,14.93
2022-10-31T21:45:00.813Z,15.25
2022-10-31T21:50:04.989Z,14.63
2022-10-31T21:55:11.377Z,15.13
2022-10-31T22:00:16.104Z,15.27
2022-10-31T22:05:20.142Z,21.80
2022-10-31T22:10:25.773Z,14.70
2022-10-31T22:15:30.234Z,14.88
2022-10-31T22:20:34.055Z,14.98
2022-10-31T22:25:39.379Z,13.55
2022-10-31T22:30:45.992Z,14.30
2022-10-31T22:35:49.930Z,13.55
2022-10-31T22:40:58.916Z,11.38
2022-10-31T22:46:06.350Z,13.60
2022-10-31T22:51:14.510Z,12.65
2022-10-31T22:56:22.607Z,13.55
2022-10-31T23:01:28.397Z,12.57
2022-10-31T23:06:34.448Z,12.35
2022-10-31T23:16:46.898Z,11.32
2022-10-31T23:21:56.574Z,12.82
2022-10-31T23:27:08.745Z,12.93
2022-10-31T23:32:19.324Z,11.13
2022-10-31T23:37:25.973Z,13.55
2022-10-31T23:42:31.433Z,11.60
2022-10-31T23:47:38.365Z,11.60
2022-10-31T23:52:45.103Z,14.20
2022-10-31T23:57:50.845Z,9.95
